createdAt,value
2018-04-19T00:02:02.930Z,10.17
2018-04-19T00:04:29.126Z,9.30
2018-04-19T00:06:55.299Z,12.57
2018-04-19T00:09:21.469Z,13.93
2018-04-19T00:11:47.666Z,13.20
2018-04-19T00:14:13.838Z,12.67
2018-04-19T00:16:40.802Z,10.87
2018-04-19T00:19:06.991Z,11.13
2018-04-19T00:21:33.161Z,13.33
2018-04-19T00:23:59.337Z,13.27
2018-04-19T00:26:25.536Z,13.10
2018-04-19T00:28:51.930Z,14.33
2018-04-19T00:31:18.850Z,14.07
2018-04-19T00:33:45.022Z,12.63
2018-04-19T00:36:11.936Z,11.67
2018-04-19T00:38:38.321Z,8.73
2018-04-19T00:41:04.531Z,8.70
2018-04-19T00:43:31.440Z,9.47
2018-04-19T00:45:57.618Z,8.50
2018-04-19T00:48:24.538Z,9.90
2018-04-19T00:50:50.724Z,11.07
2018-04-19T00:53:16.922Z,10.77
2018-04-19T00:55:43.093Z,12.30
2018-04-19T00:58:09.280Z,13.77
2018-04-19T01:00:35.474Z,13.93
2018-04-19T01:03:01.641Z,11.17
2018-04-19T01:05:27.866Z,11.93
2018-04-19T01:07:54.033Z,10.93
2018-04-19T01:10:20.985Z,10.07
2018-04-19T01:12:47.906Z,12.37
2018-04-19T01:15:14.093Z,14.77
2018-04-19T01:17:40.322Z,18.73
2018-04-19T01:20:06.507Z,21.13
2018-04-19T01:22:32.685Z,20.17
2018-04-19T01:24:58.895Z,19.67
2018-04-19T01:27:25.821Z,21.90
2018-04-19T01:29:52.041Z,20.17
2018-04-19T01:32:18.209Z,16.53
2018-04-19T01:34:45.135Z,16.67
2018-04-19T01:37:11.325Z,17.07
2018-04-19T01:39:37.513Z,15.47
2018-04-19T01:42:03.717Z,16.07
2018-04-19T01:44:29.880Z,14.40
2018-04-19T01:46:56.793Z,14.23
2018-04-19T01:49:23.005Z,13.73
2018-04-19T01:51:49.185Z,10.63
2018-04-19T01:54:16.166Z,10.00
2018-04-19T01:56:43.069Z,9.07
2018-04-19T01:59:09.266Z,10.30
2018-04-19T02:01:35.454Z,9.80
2018-04-19T02:04:01.648Z,9.90
2018-04-19T02:06:27.833Z,10.57
2018-04-19T02:08:54.753Z,10.80
2018-04-19T02:11:20.921Z,10.13
2018-04-19T02:13:47.871Z,8.90
2018-04-19T02:16:14.794Z,7.87
2018-04-19T02:18:41.000Z,6.87
2018-04-19T02:21:07.179Z,7.70
2018-04-19T02:23:34.085Z,8.73
2018-04-19T02:26:00.271Z,8.03
2018-04-19T02:28:27.189Z,11.37
2018-04-19T02:30:53.655Z,12.20
2018-04-19T02:33:20.573Z,11.20
2018-04-19T02:35:46.817Z,11.90
2018-04-19T02:38:12.966Z,13.30
2018-04-19T02:40:39.892Z,12.43
2018-04-19T02:43:06.104Z,11.20
2018-04-19T02:45:32.295Z,10.53
2018-04-19T02:47:58.465Z,10.33
2018-04-19T02:50:24.647Z,9.57
2018-04-19T02:52:51.559Z,9.70
2018-04-19T02:55:17.778Z,10.90
2018-04-19T02:57:43.962Z,10.93
2018-04-19T03:00:10.880Z,13.50
2018-04-19T03:02:37.073Z,14.43
2018-04-19T03:05:03.253Z,13.97
2018-04-19T03:07:29.458Z,12.17
2018-04-19T03:09:56.431Z,10.67
2018-04-19T03:12:22.625Z,12.60
2018-04-19T03:14:48.829Z,11.70
2018-04-19T03:17:15.746Z,11.83
2018-04-19T03:19:41.917Z,10.73
2018-04-19T03:22:08.874Z,10.90
2018-04-19T03:24:35.067Z,10.70
2018-04-19T03:27:01.255Z,11.70
2018-04-19T03:29:27.454Z,10.93
2018-04-19T03:31:54.382Z,10.73
2018-04-19T03:34:20.550Z,9.83
2018-04-19T03:36:47.535Z,9.33
2018-04-19T03:39:13.738Z,9.97
2018-04-19T03:41:40.073Z,10.37
2018-04-19T03:44:06.303Z,10.17
2018-04-19T03:46:32.487Z,10.60
2018-04-19T03:48:58.660Z,9.13
2018-04-19T03:51:25.593Z,9.53
2018-04-19T03:53:51.956Z,9.60
2018-04-19T03:56:18.382Z,9.63
2018-04-19T03:58:45.310Z,10.47
2018-04-19T04:01:12.263Z,10.50
2018-04-19T04:03:38.489Z,11.30
2018-04-19T04:06:04.668Z,10.83
2018-04-19T04:08:30.861Z,11.40
2018-04-19T04:10:57.041Z,11.97
2018-04-19T04:13:23.224Z,11.33
2018-04-19T04:15:49.403Z,11.20
2018-04-19T04:18:28.098Z,11.63
2018-04-19T04:21:07.454Z,11.70
2018-04-19T04:23:46.787Z,11.60
2018-04-19T04:26:13.765Z,13.13
2018-04-19T04:28:39.958Z,14.40
2018-04-19T04:31:06.148Z,14.17
2018-04-19T04:33:32.358Z,13.70
2018-04-19T04:35:58.545Z,14.20
2018-04-19T04:38:25.518Z,15.07
2018-04-19T04:40:51.697Z,14.90
2018-04-19T04:43:18.297Z,14.43
2018-04-19T04:45:44.486Z,15.00
2018-04-19T04:48:10.662Z,14.70
2018-04-19T04:50:36.876Z,14.27
2018-04-19T04:53:03.809Z,13.57
2018-04-19T04:55:30.709Z,13.90
2018-04-19T04:57:56.894Z,13.27
2018-04-19T05:00:23.831Z,11.97
2018-04-19T05:02:50.028Z,13.03
2018-04-19T05:05:16.235Z,13.10
2018-04-19T05:07:43.310Z,13.27
2018-04-19T05:10:09.506Z,13.03
2018-04-19T05:12:36.422Z,13.10
2018-04-19T05:15:02.639Z,13.03
2018-04-19T05:17:28.814Z,13.67
2018-04-19T05:19:55.719Z,13.13
2018-04-19T05:22:21.900Z,12.43
2018-04-19T05:24:48.816Z,13.67
2018-04-19T05:27:15.005Z,14.20
2018-04-19T05:29:41.200Z,14.53
2018-04-19T05:32:08.113Z,14.90
2018-04-19T05:34:34.291Z,14.10
2018-04-19T05:37:01.206Z,13.80
2018-04-19T05:39:27.678Z,14.43
2018-04-19T05:41:54.585Z,14.50
2018-04-19T05:44:20.993Z,15.63
2018-04-19T05:46:47.181Z,16.17
2018-04-19T05:49:13.371Z,18.63
2018-04-19T05:51:39.566Z,16.83
2018-04-19T05:54:06.493Z,17.03
2018-04-19T05:56:32.670Z,17.67
2018-04-19T05:58:58.881Z,17.60
2018-04-19T06:01:25.793Z,17.20
2018-04-19T06:03:52.007Z,17.23
2018-04-19T06:06:18.209Z,17.70
2018-04-19T06:08:44.416Z,17.33
2018-04-19T06:11:10.643Z,16.53
2018-04-19T06:13:36.831Z,16.60
2018-04-19T06:16:03.037Z,16.77
2018-04-19T06:18:29.963Z,16.27
2018-04-19T06:20:56.150Z,17.30
2018-04-19T06:23:22.346Z,15.93
2018-04-19T06:25:49.277Z,15.73
2018-04-19T06:28:15.724Z,16.27
2018-04-19T06:30:42.637Z,16.60
2018-04-19T06:33:08.814Z,15.17
2018-04-19T06:35:35.736Z,16.10
2018-04-19T06:38:01.922Z,15.60
2018-04-19T06:40:28.165Z,16.23
2018-04-19T06:42:54.332Z,16.17
2018-04-19T06:45:20.730Z,15.47
2018-04-19T06:47:47.644Z,14.77
2018-04-19T06:50:14.570Z,13.43
2018-04-19T06:52:40.778Z,14.23
2018-04-19T06:55:06.946Z,14.87
2018-04-19T06:57:33.885Z,13.47
2018-04-19T07:00:00.078Z,13.93
2018-04-19T07:02:26.253Z,13.03
2018-04-19T07:04:52.472Z,13.50
2018-04-19T07:07:18.640Z,13.60
2018-04-19T07:09:45.569Z,13.93
2018-04-19T07:12:11.774Z,13.30
2018-04-19T07:14:37.997Z,12.37
2018-04-19T07:17:04.902Z,12.83
2018-04-19T07:19:31.828Z,12.27
2018-04-19T07:21:58.018Z,10.70
2018-04-19T07:24:24.253Z,10.77
2018-04-19T07:26:50.421Z,10.73
2018-04-19T07:29:16.627Z,10.03
2018-04-19T07:31:42.813Z,10.53
2018-04-19T07:34:09.758Z,9.73
2018-04-19T07:36:35.945Z,8.90
2018-04-19T07:39:02.187Z,9.40
2018-04-19T07:41:28.575Z,7.80
2018-04-19T07:43:55.484Z,7.77
2018-04-19T07:46:21.672Z,8.80
2018-04-19T07:48:47.845Z,7.60
2018-04-19T07:51:14.021Z,7.53
2018-04-19T07:53:40.941Z,7.33
2018-04-19T07:56:07.123Z,8.07
2018-04-19T07:58:33.297Z,8.37
2018-04-19T08:00:59.486Z,7.97
2018-04-19T08:03:25.685Z,7.93
2018-04-19T08:05:52.637Z,8.07
2018-04-19T08:08:18.813Z,8.83
2018-04-19T08:10:45.006Z,8.43
2018-04-19T08:13:11.936Z,7.73
2018-04-19T08:15:38.122Z,8.53
2018-04-19T08:18:04.327Z,8.77
2018-04-19T08:20:31.257Z,8.60
2018-04-19T08:22:57.425Z,7.87
2018-04-19T08:25:24.353Z,7.47
2018-04-19T08:27:50.539Z,8.37
2018-04-19T08:30:16.730Z,7.77
2018-04-19T08:32:43.672Z,9.03
2018-04-19T08:35:10.605Z,8.37
2018-04-19T08:37:36.786Z,8.10
2018-04-19T08:40:02.970Z,8.57
2018-04-19T08:42:29.202Z,8.37
2018-04-19T08:44:55.384Z,8.67
2018-04-19T08:47:21.572Z,8.03
2018-04-19T08:49:47.754Z,8.20
2018-04-19T08:52:13.948Z,8.43
2018-04-19T08:54:40.131Z,8.13
2018-04-19T08:57:06.321Z,8.57
2018-04-19T08:59:33.245Z,8.30
2018-04-19T09:01:59.409Z,8.27
2018-04-19T09:04:26.343Z,7.83
2018-04-19T09:06:52.522Z,7.63
2018-04-19T09:09:18.714Z,7.80
2018-04-19T09:11:45.640Z,7.67
2018-04-19T09:14:11.806Z,7.80
2018-04-19T09:16:38.723Z,7.27
2018-04-19T09:19:04.923Z,7.77
2018-04-19T09:21:31.093Z,8.47
2018-04-19T09:23:57.301Z,8.00
2018-04-19T09:26:23.466Z,8.53
2018-04-19T09:28:49.666Z,8.37
2018-04-19T09:31:15.847Z,8.77
2018-04-19T09:33:42.766Z,8.57
2018-04-19T09:36:08.956Z,8.70
2018-04-19T09:38:35.112Z,8.73
2018-04-19T09:41:01.312Z,8.57
2018-04-19T09:43:28.218Z,8.80
2018-04-19T09:45:54.398Z,9.23
2018-04-19T09:48:20.769Z,8.73
2018-04-19T09:50:46.946Z,8.73
2018-04-19T09:53:13.874Z,9.20
2018-04-19T09:55:40.057Z,8.60
2018-04-19T09:58:07.220Z,8.63
2018-04-19T10:00:33.422Z,8.10
2018-04-19T10:03:00.350Z,8.30
2018-04-19T10:05:27.303Z,8.03
2018-04-19T10:07:54.227Z,7.33
2018-04-19T10:10:20.598Z,7.13
2018-04-19T10:12:47.531Z,6.77
2018-04-19T10:15:13.709Z,6.37
2018-04-19T10:17:39.906Z,6.10
2018-04-19T10:20:06.817Z,6.83
2018-04-19T10:22:33.026Z,6.77
2018-04-19T10:24:59.205Z,6.57
2018-04-19T10:27:25.440Z,6.67
2018-04-19T10:29:51.605Z,6.50
2018-04-19T10:32:17.786Z,6.53
2018-04-19T10:34:43.977Z,6.53
2018-04-19T10:37:10.176Z,5.60
2018-04-19T10:39:36.376Z,4.90
2018-04-19T10:42:02.591Z,5.13
2018-04-19T10:44:28.757Z,4.87
2018-04-19T10:46:54.978Z,5.80
2018-04-19T10:49:21.166Z,5.63
2018-04-19T10:51:48.073Z,4.87
2018-04-19T10:54:14.257Z,5.40
2018-04-19T10:56:40.433Z,5.07
2018-04-19T10:59:06.638Z,4.57
2018-04-19T11:01:32.810Z,5.47
2018-04-19T11:03:59.409Z,4.40
2018-04-19T11:06:25.610Z,4.00
2018-04-19T11:08:52.512Z,4.60
2018-04-19T11:11:18.717Z,4.60
2018-04-19T11:13:44.873Z,4.03
2018-04-19T11:16:11.047Z,4.67
2018-04-19T11:18:37.236Z,4.30
2018-04-19T11:21:03.410Z,4.60
2018-04-19T11:23:29.620Z,4.40
2018-04-19T11:25:55.803Z,3.90
2018-04-19T11:28:21.970Z,4.80
2018-04-19T11:30:48.149Z,4.27
2018-04-19T11:33:15.058Z,4.57
2018-04-19T11:35:41.250Z,4.67
2018-04-19T11:38:07.434Z,3.90
2018-04-19T11:40:33.630Z,4.13
2018-04-19T11:42:59.813Z,3.93
2018-04-19T11:45:25.980Z,4.00
2018-04-19T11:47:52.889Z,3.83
2018-04-19T11:50:19.094Z,4.13
2018-04-19T11:52:45.285Z,4.27
2018-04-19T11:55:12.205Z,3.70
2018-04-19T11:57:38.433Z,3.93
2018-04-19T12:00:04.613Z,3.70
2018-04-19T12:02:30.786Z,3.60
2018-04-19T12:04:56.986Z,3.83
2018-04-19T12:07:23.146Z,3.80
2018-04-19T12:09:49.327Z,3.43
2018-04-19T12:12:16.252Z,3.50
2018-04-19T12:14:42.435Z,3.30
2018-04-19T12:17:08.653Z,3.17
2018-04-19T12:19:35.606Z,3.10
2018-04-19T12:22:01.795Z,3.87
2018-04-19T12:24:28.034Z,3.10
2018-04-19T12:26:54.224Z,3.17
2018-04-19T12:29:20.441Z,3.10
2018-04-19T12:31:46.638Z,3.00
2018-04-19T12:34:12.811Z,2.80
2018-04-19T12:36:38.981Z,2.60
2018-04-19T12:39:05.161Z,3.10
2018-04-19T12:41:31.378Z,3.10
2018-04-19T12:43:57.544Z,2.90
2018-04-19T12:46:23.708Z,2.87
2018-04-19T12:48:49.894Z,2.87
2018-04-19T12:51:17.169Z,2.67
2018-04-19T12:53:43.358Z,3.00
2018-04-19T12:56:09.538Z,2.77
2018-04-19T12:58:35.716Z,2.63
2018-04-19T13:01:01.901Z,2.70
2018-04-19T13:03:28.087Z,2.60
2018-04-19T13:05:54.281Z,2.67
2018-04-19T13:08:20.441Z,2.60
2018-04-19T13:10:46.610Z,2.57
2018-04-19T13:13:13.535Z,2.70
2018-04-19T13:15:39.728Z,2.63
2018-04-19T13:18:05.963Z,2.87
2018-04-19T13:20:32.123Z,2.60
2018-04-19T13:22:58.308Z,2.57
2018-04-19T13:25:24.518Z,2.30
2018-04-19T13:27:51.453Z,2.50
2018-04-19T13:30:18.406Z,2.40
2018-04-19T13:32:45.322Z,2.30
2018-04-19T13:35:11.510Z,2.43
2018-04-19T13:37:38.434Z,2.40
2018-04-19T13:40:04.615Z,2.40
2018-04-19T13:42:30.818Z,2.83
2018-04-19T13:44:57.729Z,2.73
2018-04-19T13:47:23.921Z,2.50
2018-04-19T13:49:50.125Z,2.50
2018-04-19T13:52:17.197Z,2.37
2018-04-19T13:54:44.137Z,2.60
2018-04-19T13:57:11.058Z,2.50
2018-04-19T13:59:37.232Z,2.30
2018-04-19T14:02:03.455Z,2.70
2018-04-19T14:04:29.634Z,2.90
2018-04-19T14:06:55.842Z,2.90
2018-04-19T14:09:22.027Z,2.80
2018-04-19T14:11:48.949Z,2.77
2018-04-19T14:14:15.117Z,3.00
2018-04-19T14:16:42.057Z,2.63
2018-04-19T14:19:08.259Z,2.43
2018-04-19T14:21:34.424Z,2.80
2018-04-19T14:24:00.601Z,2.47
2018-04-19T14:26:26.777Z,2.90
2018-04-19T14:28:52.938Z,2.50
2018-04-19T14:31:19.873Z,2.60
2018-04-19T14:33:46.805Z,2.80
2018-04-19T14:36:12.968Z,2.80
2018-04-19T14:38:39.919Z,3.07
2018-04-19T14:41:06.845Z,2.87
2018-04-19T14:43:33.072Z,2.47
2018-04-19T14:45:59.226Z,2.67
2018-04-19T14:48:26.137Z,2.70
2018-04-19T14:50:52.393Z,2.90
2018-04-19T14:53:18.577Z,2.60
2018-04-19T14:55:44.774Z,2.60
2018-04-19T14:58:11.690Z,2.33
2018-04-19T15:00:37.906Z,2.57
2018-04-19T15:03:04.078Z,2.40
2018-04-19T15:05:30.251Z,2.10
2018-04-19T15:07:56.449Z,2.03
2018-04-19T15:10:23.374Z,2.27
2018-04-19T15:12:49.565Z,2.20
2018-04-19T15:15:15.737Z,2.00
2018-04-19T15:17:41.914Z,1.97
2018-04-19T15:20:08.846Z,2.37
2018-04-19T15:22:35.021Z,2.23
2018-04-19T15:25:01.198Z,2.10
2018-04-19T15:27:27.368Z,2.17
2018-04-19T15:29:54.294Z,2.27
2018-04-19T15:32:21.248Z,1.90
2018-04-19T15:34:47.435Z,2.00
2018-04-19T15:37:13.621Z,1.80
2018-04-19T15:39:40.562Z,2.00
2018-04-19T15:42:07.520Z,1.80
2018-04-19T15:44:34.448Z,2.03
2018-04-19T15:47:00.638Z,1.90
2018-04-19T15:49:26.814Z,2.00
2018-04-19T15:51:52.997Z,1.77
2018-04-19T15:54:19.177Z,1.67
2018-04-19T15:56:45.372Z,1.73
2018-04-19T15:59:11.543Z,2.20
2018-04-19T16:01:37.726Z,2.20
2018-04-19T16:04:03.904Z,2.40
2018-04-19T16:06:30.081Z,2.00
2018-04-19T16:08:56.276Z,2.10
2018-04-19T16:11:22.476Z,2.10
2018-04-19T16:13:48.665Z,2.10
2018-04-19T16:16:15.585Z,2.23
2018-04-19T16:18:41.749Z,2.10
2018-04-19T16:21:08.693Z,2.10
2018-04-19T16:23:35.639Z,2.03
2018-04-19T16:26:02.553Z,2.30
2018-04-19T16:28:28.746Z,2.10
2018-04-19T16:30:54.915Z,2.40
2018-04-19T16:33:21.108Z,1.90
2018-04-19T16:35:47.280Z,2.20
2018-04-19T16:38:13.459Z,1.90
2018-04-19T16:40:40.377Z,1.90
2018-04-19T16:43:06.559Z,2.00
2018-04-19T16:45:32.759Z,2.00
2018-04-19T16:47:59.686Z,2.00
2018-04-19T16:50:25.865Z,2.10
2018-04-19T16:52:52.064Z,1.90
2018-04-19T16:55:18.245Z,1.83
2018-04-19T16:57:44.446Z,2.20
2018-04-19T17:00:11.391Z,2.13
2018-04-19T17:02:38.437Z,2.00
2018-04-19T17:05:04.638Z,2.00
2018-04-19T17:07:30.849Z,2.07
2018-04-19T17:09:57.029Z,1.60
2018-04-19T17:12:23.228Z,1.90
2018-04-19T17:14:49.482Z,1.60
2018-04-19T17:17:15.612Z,2.10
2018-04-19T17:19:41.810Z,1.90
2018-04-19T17:22:07.984Z,1.67
2018-04-19T17:24:34.249Z,1.80
2018-04-19T17:27:01.198Z,2.00
2018-04-19T17:29:28.149Z,1.90
2018-04-19T17:31:55.062Z,1.60
2018-04-19T17:34:21.254Z,1.77
2018-04-19T17:36:47.429Z,1.87
2018-04-19T17:39:13.632Z,1.80
2018-04-19T17:41:39.802Z,1.87
2018-04-19T17:44:05.976Z,1.77
2018-04-19T17:46:32.158Z,1.67
2018-04-19T17:48:58.321Z,1.70
2018-04-19T17:51:25.257Z,1.73
2018-04-19T17:53:51.442Z,1.90
2018-04-19T17:56:17.897Z,2.17
2018-04-19T17:58:44.080Z,1.80
2018-04-19T18:01:11.014Z,1.90
2018-04-19T18:03:37.234Z,2.03
2018-04-19T18:06:04.199Z,2.10
2018-04-19T18:08:30.378Z,1.90
2018-04-19T18:10:56.553Z,2.23
2018-04-19T18:13:22.739Z,2.20
2018-04-19T18:15:48.967Z,2.23
2018-04-19T18:18:15.154Z,2.50
2018-04-19T18:20:42.077Z,2.70
2018-04-19T18:23:08.296Z,2.70
2018-04-19T18:25:34.477Z,2.40
2018-04-19T18:28:00.673Z,2.50
2018-04-19T18:30:26.836Z,2.63
2018-04-19T18:32:53.753Z,2.27
2018-04-19T18:35:19.926Z,2.73
2018-04-19T18:37:46.081Z,2.57
2018-04-19T18:40:12.285Z,2.50
2018-04-19T18:42:38.457Z,2.90
2018-04-19T18:45:04.678Z,2.80
2018-04-19T18:47:30.857Z,2.50
2018-04-19T18:49:58.425Z,2.37
2018-04-19T18:52:24.689Z,3.00
2018-04-19T18:54:51.605Z,2.93
2018-04-19T18:57:18.137Z,2.50
2018-04-19T18:59:44.329Z,2.90
2018-04-19T19:02:11.253Z,2.90
2018-04-19T19:04:37.459Z,3.50
2018-04-19T19:07:03.651Z,4.07
2018-04-19T19:09:29.818Z,2.93
2018-04-19T19:11:55.985Z,3.20
2018-04-19T19:14:22.185Z,2.73
2018-04-19T19:16:48.374Z,3.40
2018-04-19T19:19:26.863Z,3.20
2018-04-19T19:21:53.057Z,3.53
2018-04-19T19:24:19.234Z,3.80
2018-04-19T19:26:45.441Z,3.83
2018-04-19T19:29:11.630Z,3.33
2018-04-19T19:31:37.814Z,3.43
2018-04-19T19:34:03.999Z,3.63
2018-04-19T19:36:30.198Z,4.20
2018-04-19T19:38:57.156Z,4.20
2018-04-19T19:41:24.073Z,3.60
2018-04-19T19:43:50.241Z,3.93
2018-04-19T19:46:17.167Z,4.03
2018-04-19T19:48:43.358Z,4.63
2018-04-19T19:51:09.573Z,4.87
2018-04-19T19:53:35.753Z,4.40
2018-04-19T19:56:01.946Z,3.60
2018-04-19T19:58:28.138Z,4.30
2018-04-19T20:00:54.312Z,4.33
2018-04-19T20:03:20.508Z,4.33
2018-04-19T20:05:47.472Z,4.30
2018-04-19T20:08:14.373Z,4.23
2018-04-19T20:10:40.563Z,3.40
2018-04-19T20:13:07.513Z,3.90
2018-04-19T20:15:34.464Z,3.17
2018-04-19T20:18:00.643Z,4.10
2018-04-19T20:20:26.813Z,3.97
2018-04-19T20:22:53.953Z,3.40
2018-04-19T20:25:20.877Z,3.50
2018-04-19T20:27:47.057Z,3.23
2018-04-19T20:30:13.988Z,4.10
2018-04-19T20:32:40.161Z,3.13
2018-04-19T20:35:06.374Z,2.90
2018-04-19T20:37:33.309Z,3.97
2018-04-19T20:40:00.265Z,4.97
2018-04-19T20:42:27.181Z,6.60
2018-04-19T20:44:53.423Z,4.40
2018-04-19T20:47:19.605Z,3.40
2018-04-19T20:49:45.763Z,3.53
2018-04-19T20:52:11.950Z,3.70
2018-04-19T20:54:38.878Z,4.80
2018-04-19T20:57:05.878Z,4.17
2018-04-19T20:59:32.261Z,3.47
2018-04-19T21:01:58.432Z,6.57
2018-04-19T21:04:24.603Z,3.43
2018-04-19T21:06:50.830Z,3.40
2018-04-19T21:09:17.038Z,4.17
2018-04-19T21:11:43.202Z,5.07
2018-04-19T21:14:09.373Z,3.87
2018-04-19T21:16:36.317Z,4.60
2018-04-19T21:19:02.485Z,3.80
2018-04-19T21:21:28.690Z,3.00
2018-04-19T21:23:55.617Z,3.03
2018-04-19T21:26:21.784Z,3.87
2018-04-19T21:28:48.707Z,4.27
2018-04-19T21:31:14.907Z,3.50
2018-04-19T21:33:41.293Z,3.23
2018-04-19T21:36:08.219Z,3.40
2018-04-19T21:38:34.396Z,2.97
2018-04-19T21:41:00.587Z,4.03
2018-04-19T21:43:26.778Z,4.20
2018-04-19T21:45:53.036Z,3.93
2018-04-19T21:48:19.222Z,3.37
2018-04-19T21:50:46.128Z,3.90
2018-04-19T21:53:12.314Z,4.37
2018-04-19T21:55:38.485Z,4.00
2018-04-19T21:58:04.686Z,4.90
2018-04-19T22:00:31.842Z,3.77
2018-04-19T22:02:58.034Z,3.67
2018-04-19T22:05:24.212Z,4.30
2018-04-19T22:07:50.390Z,3.90
2018-04-19T22:10:17.357Z,3.60
2018-04-19T22:12:44.277Z,3.57
2018-04-19T22:15:10.466Z,3.97
2018-04-19T22:17:36.645Z,4.20
2018-04-19T22:20:02.822Z,2.80
2018-04-19T22:22:29.031Z,2.63
2018-04-19T22:24:55.957Z,3.23
2018-04-19T22:27:22.126Z,3.43
2018-04-19T22:29:49.041Z,4.30
2018-04-19T22:32:15.229Z,3.70
2018-04-19T22:34:41.434Z,4.23
2018-04-19T22:37:08.348Z,3.67
2018-04-19T22:39:34.536Z,3.57
2018-04-19T22:42:00.721Z,4.67
2018-04-19T22:44:26.911Z,4.00
2018-04-19T22:46:53.119Z,4.17
2018-04-19T22:49:20.021Z,4.43
2018-04-19T22:51:46.213Z,4.00
2018-04-19T22:54:12.397Z,3.70
2018-04-19T22:56:38.587Z,3.73
2018-04-19T22:59:04.825Z,3.60
2018-04-19T23:01:31.542Z,4.23
2018-04-19T23:03:58.457Z,3.90
2018-04-19T23:06:24.650Z,4.50
2018-04-19T23:08:50.846Z,3.67
2018-04-19T23:11:17.802Z,4.07
2018-04-19T23:13:44.704Z,4.00
2018-04-19T23:16:11.655Z,3.83
2018-04-19T23:18:37.841Z,4.00
2018-04-19T23:21:04.751Z,4.40
2018-04-19T23:23:30.958Z,3.73
2018-04-19T23:25:57.133Z,3.60
2018-04-19T23:28:23.307Z,3.77
2018-04-19T23:30:49.502Z,3.87
2018-04-19T23:33:16.428Z,3.90
2018-04-19T23:35:42.652Z,3.70
2018-04-19T23:38:08.824Z,3.77
2018-04-19T23:40:35.746Z,3.70
2018-04-19T23:43:01.940Z,3.70
2018-04-19T23:45:28.116Z,3.57
2018-04-19T23:47:54.337Z,3.87
2018-04-19T23:50:20.499Z,4.17
2018-04-19T23:52:46.673Z,4.10
2018-04-19T23:55:12.848Z,3.50
2018-04-19T23:57:39.033Z,3.53
